Time;durP1;ratioP1;P1;durP2;ratioP2;P2;SDS_P1;SDS_P2;PMS_P1;PMS_P2;Temp;Humidity;BMP_temperature;BMP_pressure;BME280_temperature;BME280_humidity;BME280_pressure;Samples;Min_cycle;Max_cycle;Signal;HPM_P1;HPM_P2
2021/08/17 00:01:06;;;;;;;58.70;2.80;;;12.60;54.90;;;;;;5075275;28;20474;-72
2021/08/17 00:03:33;;;;;;;58.73;3.10;;;12.60;59.50;;;;;;5075479;28;20909;-71
2021/08/17 00:06:01;;;;;;;58.47;3.00;;;12.60;62.10;;;;;;5075226;28;20487;-72
2021/08/17 00:08:30;;;;;;;58.50;2.70;;;12.60;64.10;;;;;;5075352;28;20496;-73
2021/08/17 00:10:57;;;;;;;58.37;2.80;;;12.60;66.00;;;;;;5074796;28;21062;-71
2021/08/17 00:13:24;;;;;;;58.70;2.90;;;12.50;68.60;;;;;;5075229;28;20573;-72
2021/08/17 00:15:51;;;;;;;58.60;3.00;;;12.40;71.90;;;;;;5075229;28;20447;-71
2021/08/17 00:18:18;;;;;;;58.63;2.90;;;12.40;73.80;;;;;;5075121;28;20855;-73
2021/08/17 00:20:45;;;;;;;58.53;2.80;;;12.40;75.70;;;;;;5074740;28;20837;-73
2021/08/17 00:23:12;;;;;;;58.67;2.90;;;12.30;77.60;;;;;;5074999;28;20554;-72
2021/08/17 00:25:42;;;;;;;58.67;3.00;;;12.30;80.00;;;;;;5074932;28;20537;-72
2021/08/17 00:28:10;;;;;;;58.53;2.73;;;12.30;81.30;;;;;;5074831;28;20443;-71
2021/08/17 00:30:37;;;;;;;58.57;2.73;;;12.30;82.60;;;;;;5074685;28;20586;-72
2021/08/17 00:33:04;;;;;;;58.70;2.73;;;12.30;83.60;;;;;;5075010;28;21069;-72
2021/08/17 00:35:31;;;;;;;58.47;2.77;;;12.30;84.50;;;;;;5074882;28;20500;-72
2021/08/17 00:37:58;;;;;;;58.67;2.90;;;12.40;85.40;;;;;;5074834;28;20451;-71
2021/08/17 00:40:24;;;;;;;58.47;2.90;;;12.40;86.50;;;;;;5074367;28;20542;-73
2021/08/17 00:42:53;;;;;;;58.63;2.87;;;12.40;87.80;;;;;;5074788;28;20498;-72
2021/08/17 00:45:21;;;;;;;58.47;2.77;;;12.50;88.90;;;;;;5074760;28;21096;-72
2021/08/17 00:47:49;;;;;;;58.77;2.80;;;12.50;89.80;;;;;;5074525;28;20458;-72
2021/08/17 00:50:15;;;;;;;58.57;2.90;;;12.50;90.20;;;;;;5074424;28;20557;-72
2021/08/17 00:52:43;;;;;;;58.57;2.80;;;12.60;90.60;;;;;;5074203;28;20467;-71
2021/08/17 00:55:11;;;;;;;58.47;2.80;;;12.60;91.10;;;;;;5074662;28;20443;-72
2021/08/17 00:57:40;;;;;;;58.47;2.80;;;12.60;91.50;;;;;;5074531;28;20529;-72
2021/08/17 01:00:10;;;;;;;58.57;3.00;;;12.60;91.80;;;;;;5074212;28;20530;-73
2021/08/17 01:02:37;;;;;;;59.07;3.10;;;12.60;92.00;;;;;;5074307;28;20546;-72
2021/08/17 01:05:05;;;;;;;58.70;2.90;;;12.60;92.30;;;;;;5074175;28;20538;-73
2021/08/17 01:07:32;;;;;;;58.33;2.63;;;12.70;92.70;;;;;;5072997;28;20486;-72
2021/08/17 01:09:59;;;;;;;58.67;2.80;;;12.60;92.70;;;;;;5074044;28;20482;-72
2021/08/17 01:12:26;;;;;;;58.60;2.80;;;12.60;92.70;;;;;;5074181;28;20546;-73
2021/08/17 01:14:53;;;;;;;58.43;3.00;;;12.60;93.10;;;;;;5074058;28;20514;-72
2021/08/17 01:17:22;;;;;;;58.63;2.73;;;12.50;92.90;;;;;;5073834;28;20529;-72
2021/08/17 01:19:49;;;;;;;59.00;3.23;;;12.50;93.00;;;;;;5073746;28;20897;-71
2021/08/17 01:22:16;;;;;;;58.80;3.60;;;12.50;93.00;;;;;;5073801;28;20479;-73
2021/08/17 01:24:43;;;;;;;58.63;2.90;;;12.50;93.40;;;;;;5074032;28;20455;-72
2021/08/17 01:27:12;;;;;;;58.57;2.80;;;12.50;93.50;;;;;;5073701;28;20961;-73
2021/08/17 01:29:39;;;;;;;58.57;2.70;;;12.40;93.70;;;;;;5073469;28;20981;-73
2021/08/17 01:32:06;;;;;;;59.30;3.00;;;12.40;93.60;;;;;;5073709;28;20467;-72
2021/08/17 01:34:34;;;;;;;59.00;2.77;;;12.30;94.30;;;;;;5073528;28;20902;-73
2021/08/17 01:37:00;;;;;;;58.37;2.70;;;12.30;94.40;;;;;;5073784;28;20457;-73
2021/08/17 01:39:27;;;;;;;59.70;3.13;;;12.20;94.30;;;;;;5073398;28;20538;-73
2021/08/17 01:41:55;;;;;;;58.53;2.73;;;12.20;94.30;;;;;;5073857;28;20553;-72
2021/08/17 01:44:23;;;;;;;58.67;2.77;;;12.20;94.90;;;;;;5073511;28;20450;-72
2021/08/17 01:46:50;;;;;;;59.80;3.60;;;12.10;94.60;;;;;;5073444;28;20538;-73
2021/08/17 01:49:17;;;;;;;58.70;3.43;;;12.10;94.90;;;;;;5071691;28;20539;-73
2021/08/17 01:51:45;;;;;;;58.80;3.47;;;12.00;94.70;;;;;;5073246;28;20473;-74
2021/08/17 01:54:16;;;;;;;58.67;2.80;;;11.90;94.00;;;;;;5073193;28;20493;-73
2021/08/17 01:56:43;;;;;;;58.80;2.80;;;11.90;93.90;;;;;;5072189;28;20537;-73
2021/08/17 01:59:12;;;;;;;59.40;4.00;;;11.80;93.30;;;;;;5073034;28;20457;-73
2021/08/17 02:01:41;;;;;;;58.53;2.90;;;11.80;92.90;;;;;;5073060;28;20561;-74
2021/08/17 02:04:08;;;;;;;58.53;2.80;;;11.70;93.90;;;;;;5073127;28;20469;-73
2021/08/17 02:06:35;;;;;;;58.57;3.13;;;11.70;94.10;;;;;;5072828;28;20454;-73
2021/08/17 02:09:02;;;;;;;59.50;3.33;;;11.70;94.80;;;;;;5073173;28;20465;-74
2021/08/17 02:11:29;;;;;;;58.87;3.30;;;11.70;94.20;;;;;;5072892;28;20887;-74
2021/08/17 02:13:56;;;;;;;58.73;2.97;;;11.60;92.70;;;;;;5073261;28;20485;-74
2021/08/17 02:16:23;;;;;;;58.53;2.70;;;11.60;91.90;;;;;;5072764;28;20454;-74
2021/08/17 02:18:51;;;;;;;58.53;2.70;;;11.60;92.20;;;;;;5072653;28;20490;-74
2021/08/17 02:21:18;;;;;;;58.57;2.77;;;11.50;92.90;;;;;;5072536;28;20463;-74
2021/08/17 02:23:45;;;;;;;59.00;3.40;;;11.50;92.70;;;;;;5072858;28;20893;-74
2021/08/17 02:26:11;;;;;;;58.70;3.33;;;11.50;91.90;;;;;;5072536;28;20531;-74
2021/08/17 02:28:38;;;;;;;58.57;3.00;;;11.40;91.90;;;;;;5072752;28;20537;-74
2021/08/17 02:31:05;;;;;;;59.83;2.90;;;11.40;91.70;;;;;;5072207;28;20470;-74
2021/08/17 02:33:32;;;;;;;58.53;2.60;;;11.40;91.90;;;;;;5072287;28;21041;-74
2021/08/17 02:36:00;;;;;;;58.77;2.77;;;11.40;91.50;;;;;;5072588;28;20481;-73
2021/08/17 02:38:27;;;;;;;58.37;2.70;;;11.30;91.80;;;;;;5072627;28;20633;-74
2021/08/17 02:40:54;;;;;;;58.27;2.70;;;11.30;91.90;;;;;;5072185;28;20530;-74
2021/08/17 02:43:24;;;;;;;58.70;3.20;;;11.30;91.90;;;;;;5072480;28;20873;-74
2021/08/17 02:45:51;;;;;;;59.00;3.10;;;11.30;91.90;;;;;;5072220;28;20451;-74
2021/08/17 02:48:19;;;;;;;58.73;2.83;;;11.30;92.40;;;;;;5072218;28;20548;-74
2021/08/17 02:50:46;;;;;;;58.60;2.70;;;11.30;92.80;;;;;;5072070;28;20462;-74
2021/08/17 02:53:14;;;;;;;58.37;2.80;;;11.30;92.70;;;;;;5072219;28;20961;-74
2021/08/17 02:55:41;;;;;;;58.77;2.80;;;11.30;93.30;;;;;;5072161;28;20487;-74
2021/08/17 02:58:09;;;;;;;58.63;3.20;;;11.20;93.60;;;;;;5072150;28;20447;-73
2021/08/17 03:00:36;;;;;;;58.60;2.63;;;11.20;94.40;;;;;;5071811;28;20447;-73
2021/08/17 03:03:03;;;;;;;58.63;2.77;;;11.20;93.60;;;;;;5072288;28;20609;-74
2021/08/17 03:05:30;;;;;;;58.80;2.87;;;11.20;94.00;;;;;;5072057;28;20939;-74
2021/08/17 03:08:00;;;;;;;58.87;3.00;;;11.20;93.70;;;;;;5072041;28;20526;-74
2021/08/17 03:10:29;;;;;;;58.47;2.80;;;11.20;94.50;;;;;;5071848;28;20482;-74
2021/08/17 03:12:56;;;;;;;58.37;3.00;;;11.10;94.00;;;;;;5071951;28;20554;-73
2021/08/17 03:15:23;;;;;;;58.77;2.97;;;11.10;93.20;;;;;;5071708;28;20486;-74
2021/08/17 03:17:51;;;;;;;58.80;3.00;;;11.00;94.60;;;;;;5071740;28;20804;-73
2021/08/17 03:20:19;;;;;;;58.73;2.90;;;11.00;94.00;;;;;;5072007;28;20530;-74
2021/08/17 03:22:46;;;;;;;58.67;2.83;;;11.00;93.60;;;;;;5071984;28;20891;-74
2021/08/17 03:25:14;;;;;;;58.60;3.00;;;10.90;93.90;;;;;;5071768;28;20450;-74
2021/08/17 03:27:43;;;;;;;58.80;3.00;;;10.90;93.20;;;;;;5071703;28;20875;-74
2021/08/17 03:30:13;;;;;;;58.70;3.40;;;10.90;93.10;;;;;;5071209;28;20874;-74
2021/08/17 03:32:40;;;;;;;60.60;3.73;;;10.90;92.90;;;;;;5071858;28;20823;-74
2021/08/17 03:35:08;;;;;;;58.73;2.90;;;10.80;93.00;;;;;;5071761;28;20487;-74
2021/08/17 03:37:37;;;;;;;58.73;3.10;;;10.90;93.00;;;;;;5071685;28;20883;-74
2021/08/17 03:40:05;;;;;;;58.47;2.97;;;10.80;93.10;;;;;;5071527;28;20504;-74
2021/08/17 03:42:32;;;;;;;58.53;2.90;;;10.80;93.00;;;;;;5071716;28;20489;-73
2021/08/17 03:45:01;;;;;;;58.50;2.73;;;10.80;92.90;;;;;;5071822;28;20453;-74
2021/08/17 03:47:27;;;;;;;58.70;2.90;;;10.80;92.90;;;;;;5071548;28;21050;-74
2021/08/17 03:49:54;;;;;;;58.63;2.90;;;10.80;93.00;;;;;;5071510;28;20818;-75
2021/08/17 03:52:21;;;;;;;58.53;2.77;;;10.80;92.90;;;;;;5071531;28;20475;-74
2021/08/17 03:54:48;;;;;;;58.77;2.80;;;10.70;92.80;;;;;;5071598;28;21089;-74
2021/08/17 03:57:15;;;;;;;58.43;2.90;;;10.70;92.90;;;;;;5071744;28;20447;-73
2021/08/17 03:59:42;;;;;;;58.70;2.90;;;10.70;92.90;;;;;;5071423;28;20550;-73
2021/08/17 04:02:11;;;;;;;58.77;2.90;;;10.70;93.10;;;;;;5071463;28;20548;-73
2021/08/17 04:04:37;;;;;;;58.90;3.03;;;10.70;93.20;;;;;;5071281;28;20487;-74
2021/08/17 04:07:04;;;;;;;58.53;2.80;;;10.70;93.10;;;;;;5071370;28;20493;-74
2021/08/17 04:09:31;;;;;;;58.77;2.90;;;10.70;93.20;;;;;;5071060;28;20454;-73
2021/08/17 04:11:58;;;;;;;58.67;2.80;;;10.70;93.20;;;;;;5071475;28;20502;-74
2021/08/17 04:14:25;;;;;;;58.70;2.90;;;10.60;93.50;;;;;;5071509;28;20566;-74
2021/08/17 04:16:52;;;;;;;58.57;2.80;;;10.60;93.20;;;;;;5071389;28;20452;-74
2021/08/17 04:19:20;;;;;;;58.47;2.73;;;10.60;93.00;;;;;;5071134;28;20486;-74
2021/08/17 04:21:47;;;;;;;58.47;2.70;;;10.60;93.30;;;;;;5071140;28;20561;-74
2021/08/17 04:24:14;;;;;;;58.80;3.00;;;10.50;93.10;;;;;;5071185;28;20440;-74
2021/08/17 04:26:40;;;;;;;58.50;2.67;;;10.50;93.00;;;;;;5071380;28;20485;-74
2021/08/17 04:29:07;;;;;;;58.37;2.90;;;10.60;93.10;;;;;;5071133;28;20528;-74
2021/08/17 04:31:34;;;;;;;58.57;2.80;;;10.50;93.10;;;;;;5071217;28;20467;-74
2021/08/17 04:34:01;;;;;;;58.60;3.00;;;10.50;93.10;;;;;;5071164;28;20502;-73
2021/08/17 04:36:30;;;;;;;58.60;2.70;;;10.50;93.10;;;;;;5070967;28;20490;-73
2021/08/17 04:38:56;;;;;;;58.90;3.30;;;10.50;93.20;;;;;;5071598;28;20497;-74
2021/08/17 04:41:23;;;;;;;58.67;2.87;;;10.50;93.40;;;;;;5071622;28;20880;-74
2021/08/17 04:43:50;;;;;;;58.47;2.90;;;10.50;93.60;;;;;;5074906;28;20872;-73
2021/08/17 04:46:17;;;;;;;58.50;3.00;;;10.50;93.70;;;;;;5074499;28;20478;-73
2021/08/17 04:48:44;;;;;;;58.80;2.80;;;10.60;93.90;;;;;;5074585;28;20479;-74
2021/08/17 04:51:11;;;;;;;58.37;2.70;;;10.60;94.00;;;;;;5074642;28;20509;-74
2021/08/17 04:53:39;;;;;;;58.43;2.70;;;10.70;94.40;;;;;;5074711;28;20486;-74
2021/08/17 04:56:06;;;;;;;58.53;2.87;;;10.70;94.70;;;;;;5074327;28;20573;-73
2021/08/17 04:58:33;;;;;;;58.50;2.87;;;10.80;94.80;;;;;;5074347;28;20454;-74
2021/08/17 05:01:00;;;;;;;58.53;2.70;;;10.90;95.10;;;;;;5074204;28;20905;-74
2021/08/17 05:03:27;;;;;;;58.47;3.30;;;11.00;95.60;;;;;;5074135;28;20900;-73
2021/08/17 05:05:54;;;;;;;58.37;2.80;;;11.00;95.90;;;;;;5074172;28;20452;-73
2021/08/17 05:08:21;;;;;;;58.40;2.63;;;11.10;96.40;;;;;;5074342;28;20461;-73
2021/08/17 05:10:49;;;;;;;58.37;2.77;;;11.20;96.60;;;;;;5074056;28;20542;-73
2021/08/17 05:13:16;;;;;;;58.47;2.80;;;11.20;96.50;;;;;;5074116;28;20447;-74
2021/08/17 05:15:43;;;;;;;58.43;2.80;;;11.30;96.70;;;;;;5073956;28;20574;-73
2021/08/17 05:18:10;;;;;;;58.27;2.57;;;11.40;96.80;;;;;;5073922;28;20453;-74
2021/08/17 05:20:37;;;;;;;58.37;2.70;;;11.40;96.90;;;;;;5073934;28;20542;-74
2021/08/17 05:23:04;;;;;;;58.23;2.60;;;11.40;97.00;;;;;;5074126;28;20539;-73
2021/08/17 05:25:31;;;;;;;59.00;2.90;;;11.30;97.10;;;;;;5074041;28;20530;-73
2021/08/17 05:27:59;;;;;;;58.53;2.80;;;11.30;97.20;;;;;;5073833;28;20538;-73
2021/08/17 05:30:26;;;;;;;58.27;2.70;;;11.30;97.40;;;;;;5073504;28;20489;-73
2021/08/17 05:32:53;;;;;;;58.17;2.60;;;11.20;97.20;;;;;;5073513;28;20477;-74
2021/08/17 05:35:20;;;;;;;58.50;3.00;;;11.20;97.30;;;;;;5073628;28;21077;-73
2021/08/17 05:37:47;;;;;;;58.37;2.80;;;11.20;97.50;;;;;;5073691;28;21006;-74
2021/08/17 05:40:14;;;;;;;58.37;2.60;;;11.20;97.60;;;;;;5073338;28;20614;-73
2021/08/17 05:42:41;;;;;;;58.47;2.80;;;11.20;97.50;;;;;;5073532;28;20467;-74
2021/08/17 05:45:10;;;;;;;58.43;2.90;;;11.20;97.60;;;;;;5073626;28;20525;-72
2021/08/17 05:47:42;;;;;;;58.47;2.70;;;11.20;97.80;;;;;;5073384;28;20863;-73
2021/08/17 05:50:10;;;;;;;58.23;2.60;;;11.10;97.60;;;;;;5073214;28;20534;-73
2021/08/17 05:52:38;;;;;;;58.77;2.90;;;11.10;97.80;;;;;;5072814;28;21014;-73
2021/08/17 05:55:05;;;;;;;58.63;3.00;;;11.10;97.60;;;;;;5073137;28;20475;-73
2021/08/17 05:57:32;;;;;;;58.27;2.70;;;11.10;97.40;;;;;;5073424;28;20550;-73
2021/08/17 05:59:59;;;;;;;58.67;2.90;;;11.10;97.30;;;;;;5072931;28;20448;-73
2021/08/17 06:02:27;;;;;;;58.57;3.07;;;11.10;97.20;;;;;;5073408;28;20473;-72
2021/08/17 06:04:54;;;;;;;58.57;2.80;;;11.10;97.20;;;;;;5073213;28;20550;-72
2021/08/17 06:07:21;;;;;;;59.20;4.50;;;11.20;97.00;;;;;;5073336;28;20450;-73
2021/08/17 06:09:48;;;;;;;58.33;2.90;;;11.20;96.20;;;;;;5072684;28;21058;-73
2021/08/17 06:12:15;;;;;;;58.57;2.90;;;11.30;95.30;;;;;;5072840;28;20558;-73
2021/08/17 06:14:42;;;;;;;58.67;3.00;;;11.30;93.70;;;;;;5073070;28;20541;-73
2021/08/17 06:17:10;;;;;;;58.37;2.90;;;11.40;99.90;;;;;;5072966;28;20458;-72
2021/08/17 06:19:38;;;;;;;58.27;2.80;;;11.50;99.90;;;;;;5072791;28;20443;-72
2021/08/17 06:22:05;;;;;;;58.50;2.90;;;11.50;90.60;;;;;;5072889;28;20555;-72
2021/08/17 06:24:32;;;;;;;58.80;3.77;;;11.60;77.90;;;;;;5072939;28;20454;-72
2021/08/17 06:26:59;;;;;;;58.17;2.90;;;11.60;74.80;;;;;;5072932;28;20471;-73
2021/08/17 06:29:25;;;;;;;58.33;2.80;;;11.70;74.10;;;;;;5072571;28;21053;-72
2021/08/17 06:31:52;;;;;;;58.57;2.97;;;11.70;72.50;;;;;;5072822;28;20514;-72
2021/08/17 06:34:19;;;;;;;58.70;2.93;;;11.80;70.30;;;;;;5072863;28;20513;-72
2021/08/17 06:36:47;;;;;;;58.50;2.67;;;11.90;41.20;;;;;;5072589;28;20483;-73
2021/08/17 06:39:15;;;;;;;58.53;2.87;;;12.00;32.60;;;;;;5072361;28;20493;-73
2021/08/17 06:41:42;;;;;;;58.50;2.93;;;12.00;46.30;;;;;;5072596;28;20466;-73
2021/08/17 06:44:09;;;;;;;58.27;2.70;;;12.00;49.30;;;;;;5072769;28;20447;-72
2021/08/17 06:46:36;;;;;;;58.37;2.80;;;12.00;38.30;;;;;;5072401;28;20534;-72
2021/08/17 06:49:02;;;;;;;58.37;2.80;;;12.10;12.10;;;;;;5072227;28;20955;-71
2021/08/17 06:51:29;;;;;;;58.37;2.93;;;12.20;1.90;;;;;;5072355;28;20558;-71
2021/08/17 06:53:57;;;;;;;60.30;3.13;;;12.20;1.00;;;;;;5072480;28;20540;-71
2021/08/17 06:56:24;;;;;;;58.37;2.70;;;12.30;1.00;;;;;;5072533;28;20513;-71
2021/08/17 06:58:51;;;;;;;58.47;2.60;;;12.40;1.00;;;;;;5072110;28;20453;-71
2021/08/17 07:01:18;;;;;;;58.17;2.60;;;12.40;1.00;;;;;;5072231;28;20482;-72
2021/08/17 07:03:45;;;;;;;58.13;2.60;;;12.40;1.00;;;;;;5071955;28;20877;-72
2021/08/17 07:06:12;;;;;;;63.23;3.90;;;12.30;1.00;;;;;;5072298;28;20449;-72
2021/08/17 07:08:39;;;;;;;58.07;2.70;;;12.30;1.00;;;;;;5072118;28;20450;-72
2021/08/17 07:11:08;;;;;;;58.40;2.73;;;12.30;1.00;;;;;;5072126;28;21002;-72
2021/08/17 07:13:35;;;;;;;58.50;3.10;;;12.30;1.00;;;;;;5072427;28;20822;-73
2021/08/17 07:16:01;;;;;;;58.27;2.60;;;12.30;1.00;;;;;;5072170;28;20574;-72
2021/08/17 07:18:28;;;;;;;58.27;2.80;;;12.30;1.00;;;;;;5072105;28;20529;-72
2021/08/17 07:20:55;;;;;;;57.97;2.50;;;12.40;1.00;;;;;;5071759;28;20451;-72
2021/08/17 07:23:22;;;;;;;58.27;2.70;;;12.50;1.00;;;;;;5071966;28;20841;-72
2021/08/17 07:25:49;;;;;;;58.50;3.00;;;12.50;1.00;;;;;;5072158;28;20469;-72
2021/08/17 07:28:19;;;;;;;58.60;2.90;;;12.70;1.00;;;;;;5071883;28;20867;-72
2021/08/17 07:30:45;;;;;;;58.17;2.50;;;12.80;1.00;;;;;;5071434;28;20513;-71
2021/08/17 07:33:12;;;;;;;58.40;3.20;;;12.90;1.00;;;;;;5071964;28;20530;-72
2021/08/17 07:35:39;;;;;;;58.37;2.57;;;13.00;1.00;;;;;;5071835;28;20479;-73
2021/08/17 07:38:06;;;;;;;61.00;3.30;;;13.20;1.00;;;;;;5071826;28;20549;-72
2021/08/17 07:40:33;;;;;;;57.83;2.50;;;13.30;1.00;;;;;;5071862;28;20544;-72
2021/08/17 07:43:00;;;;;;;58.17;2.70;;;13.60;1.00;;;;;;5071798;28;20498;-73
2021/08/17 07:45:29;;;;;;;58.03;2.47;;;13.90;1.00;;;;;;5071722;28;20823;-71
2021/08/17 07:47:55;;;;;;;58.90;2.83;;;14.00;1.00;;;;;;5071584;28;20538;-72
2021/08/17 07:50:22;;;;;;;59.43;3.00;;;14.00;1.00;;;;;;5071359;28;20532;-72
2021/08/17 07:52:50;;;;;;;57.97;2.60;;;14.10;1.00;;;;;;5071954;28;20464;-71
2021/08/17 07:55:17;;;;;;;58.13;2.70;;;14.20;1.00;;;;;;5071458;28;20552;-72
2021/08/17 07:57:45;;;;;;;58.90;3.60;;;14.40;1.00;;;;;;5071517;28;20448;-72
2021/08/17 08:00:14;;;;;;;57.87;2.57;;;14.60;1.00;;;;;;5071341;28;20888;-71
2021/08/17 08:02:42;;;;;;;57.97;2.70;;;14.70;1.00;;;;;;5071428;28;20556;-71
2021/08/17 08:05:10;;;;;;;58.40;2.90;;;14.50;1.00;;;;;;5071479;28;20492;-71
2021/08/17 08:07:37;;;;;;;58.80;2.83;;;14.50;1.00;;;;;;5071634;28;20813;-71
2021/08/17 08:10:05;;;;;;;58.47;2.77;;;14.50;1.00;;;;;;5071419;28;20547;-69
2021/08/17 08:12:32;;;;;;;58.27;2.90;;;14.80;1.00;;;;;;5071410;28;20469;-71
2021/08/17 08:14:59;;;;;;;58.47;2.90;;;15.00;1.00;;;;;;5071433;28;20491;-70
2021/08/17 08:17:26;;;;;;;58.47;2.53;;;15.00;1.00;;;;;;5074878;28;20491;-70
2021/08/17 08:19:54;;;;;;;58.27;2.90;;;15.10;1.00;;;;;;5074912;28;20541;-70
2021/08/17 08:22:21;;;;;;;58.17;2.70;;;15.00;1.00;;;;;;5075164;28;20565;-70
2021/08/17 08:24:48;;;;;;;57.93;2.50;;;15.10;1.00;;;;;;5075140;28;20961;-70
2021/08/17 08:27:15;;;;;;;58.40;2.70;;;15.10;1.00;;;;;;5075073;28;20863;-70
2021/08/17 08:29:43;;;;;;;58.03;2.70;;;15.20;1.00;;;;;;5074717;28;20460;-70
2021/08/17 08:32:11;;;;;;;58.50;2.57;;;15.20;1.00;;;;;;5074967;28;20471;-70
2021/08/17 08:34:37;;;;;;;58.37;3.00;;;15.30;1.00;;;;;;5075117;28;20448;-70
2021/08/17 08:37:06;;;;;;;58.30;2.90;;;15.40;1.00;;;;;;5074685;28;20489;-70
2021/08/17 08:39:34;;;;;;;58.17;2.70;;;15.60;1.00;;;;;;5074751;28;20546;-71
2021/08/17 08:42:01;;;;;;;58.40;3.00;;;15.80;1.00;;;;;;5074711;28;20470;-70
2021/08/17 08:44:28;;;;;;;57.97;2.70;;;16.00;1.00;;;;;;5075236;28;20532;-70
2021/08/17 08:46:55;;;;;;;59.73;3.03;;;16.20;1.00;;;;;;5074514;28;21008;-70
2021/08/17 08:49:22;;;;;;;58.17;2.80;;;16.30;1.00;;;;;;5074357;28;20485;-70
2021/08/17 08:51:49;;;;;;;57.77;2.50;;;16.30;1.00;;;;;;5074542;28;20985;-70
2021/08/17 08:54:17;;;;;;;58.60;3.23;;;16.20;1.00;;;;;;5074766;28;20534;-70
2021/08/17 08:56:45;;;;;;;58.40;2.90;;;16.30;1.00;;;;;;5074728;28;20482;-71
2021/08/17 08:59:12;;;;;;;58.40;2.90;;;16.40;1.00;;;;;;5074443;28;20451;-70
2021/08/17 09:01:38;;;;;;;58.60;3.20;;;16.40;1.00;;;;;;5074836;28;20470;-70
2021/08/17 09:04:05;;;;;;;58.50;3.10;;;16.30;1.00;;;;;;5074638;28;20541;-70
2021/08/17 09:06:34;;;;;;;58.07;2.50;;;16.30;1.00;;;;;;5074613;28;20871;-72
2021/08/17 09:09:07;;;;;;;58.50;2.80;;;16.20;1.00;;;;;;5074349;28;20939;-70
2021/08/17 09:11:36;;;;;;;58.60;2.93;;;16.30;1.00;;;;;;5074729;28;20967;-70
2021/08/17 09:14:25;;;;;;;58.07;2.57;;;16.30;1.00;;;;;;5074144;28;20490;-70
2021/08/17 09:16:53;;;;;;;58.70;2.60;;;16.30;1.00;;;;;;5069573;28;20496;-71
2021/08/17 09:19:29;;;;;;;58.03;2.70;;;16.40;1.00;;;;;;5074015;28;20457;-70
2021/08/17 09:21:57;;;;;;;58.47;2.83;;;16.60;1.00;;;;;;5073740;28;20505;-70
2021/08/17 09:24:27;;;;;;;58.60;3.43;;;16.60;1.00;;;;;;5073940;28;20976;-70
2021/08/17 09:26:56;;;;;;;58.70;2.73;;;16.90;1.00;;;;;;5073372;28;20447;-71
2021/08/17 09:29:26;;;;;;;58.30;2.70;;;17.30;1.00;;;;;;5073553;28;20538;-70
2021/08/17 09:31:54;;;;;;;58.40;3.20;;;17.20;1.00;;;;;;5073785;28;20559;-70
2021/08/17 09:34:24;;;;;;;57.60;2.60;;;17.20;1.00;;;;;;5072760;28;20534;-70
2021/08/17 09:36:51;;;;;;;57.97;2.70;;;17.40;1.00;;;;;;5073585;28;20526;-71
2021/08/17 09:39:29;;;;;;;58.20;3.20;;;17.60;1.00;;;;;;5073746;28;20543;-71
2021/08/17 09:42:18;;;;;;;58.40;2.60;;;17.60;1.00;;;;;;5073823;28;20470;-71
2021/08/17 09:44:47;;;;;;;58.40;2.97;;;17.60;1.00;;;;;;5073532;28;20944;-71
2021/08/17 09:47:14;;;;;;;58.17;2.47;;;17.60;1.00;;;;;;5073718;28;20675;-71
2021/08/17 09:49:42;;;;;;;57.77;2.50;;;17.60;1.00;;;;;;5073395;28;20454;-70
2021/08/17 09:52:11;;;;;;;58.20;2.47;;;17.70;1.00;;;;;;5073424;28;20502;-71
2021/08/17 09:54:40;;;;;;;58.07;2.70;;;17.90;1.00;;;;;;5073283;28;20480;-71
2021/08/17 09:57:08;;;;;;;58.40;2.87;;;18.20;1.00;;;;;;5073243;28;20567;-71
2021/08/17 09:59:38;;;;;;;58.30;3.03;;;18.30;1.00;;;;;;5073046;28;20873;-71
2021/08/17 10:02:07;;;;;;;58.67;4.33;;;18.30;1.00;;;;;;5073454;28;20567;-71
2021/08/17 10:04:36;;;;;;;57.77;2.60;;;18.30;1.00;;;;;;5073092;28;20509;-71
2021/08/17 10:07:05;;;;;;;57.87;2.40;;;18.40;1.00;;;;;;5073250;28;20454;-71
2021/08/17 10:09:33;;;;;;;57.97;2.37;;;18.50;1.00;;;;;;5072823;28;20448;-70
2021/08/17 10:12:00;;;;;;;57.77;2.33;;;18.60;1.00;;;;;;5072887;28;20510;-70
2021/08/17 10:14:28;;;;;;;57.47;2.40;;;18.30;1.00;;;;;;5073366;28;20494;-71
2021/08/17 10:16:57;;;;;;;57.57;2.70;;;18.40;1.00;;;;;;5072979;28;20572;-71
2021/08/17 10:19:27;;;;;;;57.17;2.50;;;18.30;1.00;;;;;;5072813;28;20444;-71
2021/08/17 10:21:55;;;;;;;58.60;2.90;;;18.30;1.00;;;;;;5072813;28;20562;-71
2021/08/17 10:24:31;;;;;;;57.97;2.50;;;18.30;1.00;;;;;;5072658;28;20923;-71
2021/08/17 10:27:24;;;;;;;58.20;2.90;;;18.40;1.00;;;;;;5072845;28;20455;-72
2021/08/17 10:30:00;;;;;;;57.97;2.37;;;18.50;1.00;;;;;;5072760;28;20883;-72
2021/08/17 10:32:47;;;;;;;60.00;3.30;;;18.40;1.00;;;;;;5072595;28;20475;-71
2021/08/17 10:35:51;;;;;;;58.30;2.70;;;18.60;1.00;;;;;;5072796;28;20854;-71
2021/08/17 10:38:48;;;;;;;58.57;2.50;;;19.20;1.00;;;;;;5072452;28;20474;-72
2021/08/17 10:41:16;;;;;;;57.73;2.20;;;20.30;1.00;;;;;;5072383;28;20473;-69
2021/08/17 10:44:14;;;;;;;57.67;2.70;;;21.00;1.00;;;;;;5072607;28;20478;-69
2021/08/17 10:46:56;;;;;;;57.90;2.50;;;21.50;1.00;;;;;;5072341;28;20443;-69
2021/08/17 10:49:49;;;;;;;58.10;2.57;;;21.50;1.00;;;;;;5071927;28;20983;-70
2021/08/17 10:52:37;;;;;;;58.00;2.20;;;21.50;1.00;;;;;;5072442;28;20902;-71
2021/08/17 10:55:37;;;;;;;57.83;2.80;;;22.10;1.00;;;;;;5072627;28;20489;-70
2021/08/17 10:58:07;;;;;;;58.10;2.20;;;23.30;1.00;;;;;;5072035;28;21022;-70
2021/08/17 11:00:55;;;;;;;58.10;2.40;;;24.50;1.00;;;;;;5072145;28;20543;-70
2021/08/17 11:03:54;;;;;;;57.83;2.37;;;25.20;1.00;;;;;;5072182;28;20827;-70
2021/08/17 11:06:44;;;;;;;58.07;2.43;;;25.60;1.00;;;;;;5072402;28;20454;-70
2021/08/17 11:09:14;;;;;;;57.77;2.10;;;25.80;1.00;;;;;;5068024;28;20464;-71
2021/08/17 11:11:43;;;;;;;59.17;2.47;;;25.60;1.00;;;;;;5072102;28;20844;-71
2021/08/17 11:14:13;;;;;;;57.67;2.00;;;25.50;1.00;;;;;;5072067;28;21010;-71
2021/08/17 11:16:46;;;;;;;58.33;2.33;;;26.00;1.00;;;;;;5071801;28;20523;-71
2021/08/17 11:19:13;;;;;;;57.47;2.00;;;26.30;1.00;;;;;;5071946;28;20877;-71
2021/08/17 11:21:43;;;;;;;58.50;3.23;;;26.10;1.00;;;;;;5072232;28;20558;-71
2021/08/17 11:24:18;;;;;;;58.63;2.27;;;25.80;1.00;;;;;;5071875;28;20449;-71
2021/08/17 11:26:47;;;;;;;57.70;2.60;;;26.10;1.00;;;;;;5071849;28;20455;-71
2021/08/17 11:29:34;;;;;;;58.03;2.73;;;27.20;1.00;;;;;;5071551;28;20543;-71
2021/08/17 11:32:04;;;;;;;57.90;2.57;;;28.60;1.00;;;;;;5071882;28;20557;-69
2021/08/17 11:34:33;;;;;;;57.47;2.10;;;29.60;1.00;;;;;;5071900;28;20447;-70
2021/08/17 11:37:02;;;;;;;57.77;2.70;;;30.40;1.00;;;;;;5071701;28;20569;-69
2021/08/17 11:39:33;;;;;;;57.90;2.00;;;31.30;1.00;;;;;;5071458;28;20458;-71
2021/08/17 11:42:01;;;;;;;57.27;2.00;;;32.10;1.00;;;;;;5071656;28;20835;-71
2021/08/17 11:44:28;;;;;;;58.30;2.43;;;32.60;1.00;;;;;;5071796;28;20947;-70
2021/08/17 11:47:07;;;;;;;58.10;2.13;;;32.50;1.00;;;;;;5071765;28;20443;-70
2021/08/17 11:49:35;;;;;;;58.40;2.50;;;32.60;1.00;;;;;;5071395;28;20534;-70
2021/08/17 11:52:05;;;;;;;58.83;2.53;;;32.80;1.00;;;;;;5075131;28;20549;-70
2021/08/17 11:54:35;;;;;;;57.17;2.10;;;33.00;1.00;;;;;;5075762;28;20482;-70
2021/08/17 11:57:03;;;;;;;57.27;2.20;;;33.10;1.00;;;;;;5075762;28;20570;-70
2021/08/17 11:59:42;;;;;;;57.27;2.20;;;33.10;1.00;;;;;;5075339;28;20962;-71
2021/08/17 12:02:10;;;;;;;57.20;2.00;;;33.60;1.00;;;;;;5075453;28;20558;-71
2021/08/17 12:04:38;;;;;;;57.70;2.10;;;34.10;1.00;;;;;;5075687;28;20748;-70
2021/08/17 12:07:13;;;;;;;57.40;2.30;;;33.80;1.00;;;;;;5075546;28;20439;-70
2021/08/17 12:09:44;;;;;;;57.60;2.60;;;33.40;1.00;;;;;;5075343;28;20869;-70
2021/08/17 12:12:13;;;;;;;57.17;2.00;;;32.50;1.00;;;;;;5075394;28;20471;-70
2021/08/17 12:14:41;;;;;;;57.50;2.27;;;31.80;1.00;;;;;;5075272;28;20450;-71
2021/08/17 12:17:10;;;;;;;57.10;2.10;;;31.20;1.00;;;;;;5075254;28;20570;-71
2021/08/17 12:19:45;;;;;;;57.37;2.30;;;30.80;1.00;;;;;;5075076;28;20447;-70
2021/08/17 12:22:24;;;;;;;57.70;2.00;;;30.50;1.00;;;;;;5075486;28;20466;-70
2021/08/17 12:24:54;;;;;;;58.10;3.10;;;30.40;1.00;;;;;;5075143;28;20450;-71
2021/08/17 12:27:24;;;;;;;57.60;2.27;;;30.40;1.00;;;;;;5074930;28;20977;-71
2021/08/17 12:29:52;;;;;;;57.90;2.27;;;30.80;1.00;;;;;;5075042;28;20533;-70
2021/08/17 12:32:20;;;;;;;57.30;1.90;;;31.60;1.00;;;;;;5075123;28;20463;-71
2021/08/17 12:34:49;;;;;;;57.67;2.13;;;32.70;1.00;;;;;;5075012;28;20534;-71
2021/08/17 12:37:30;;;;;;;57.10;2.00;;;33.00;1.00;;;;;;5074761;28;20483;-70
2021/08/17 12:40:00;;;;;;;57.07;2.30;;;33.20;1.00;;;;;;5075177;28;20453;-70
2021/08/17 12:42:28;;;;;;;56.90;1.90;;;33.40;1.00;;;;;;5075140;28;20499;-70
2021/08/17 12:44:55;;;;;;;57.00;1.93;;;33.60;1.00;;;;;;5074766;28;20534;-70
2021/08/17 12:47:25;;;;;;;58.40;2.10;;;33.70;1.00;;;;;;5074539;28;20538;-70
2021/08/17 12:49:54;;;;;;;56.93;1.90;;;34.00;1.00;;;;;;5074379;28;20451;-70